createdAt,value
2018-05-12T00:04:35.114Z,8.63
2018-05-12T00:09:37.619Z,8.58
2018-05-12T00:14:40.126Z,8.46
2018-05-12T00:19:42.642Z,8.39
2018-05-12T00:24:45.130Z,8.30
2018-05-12T00:29:47.618Z,8.32
2018-05-12T00:34:51.508Z,8.35
2018-05-12T00:39:54.022Z,8.26
2018-05-12T00:44:56.512Z,8.23
2018-05-12T00:49:59.012Z,8.38
2018-05-12T00:55:01.693Z,8.23
2018-05-12T01:00:04.261Z,8.15
2018-05-12T01:05:06.821Z,8.07
2018-05-12T01:10:09.316Z,8.03
2018-05-12T01:15:11.830Z,7.92
2018-05-12T01:20:14.383Z,7.93
2018-05-12T01:25:16.979Z,7.84
2018-05-12T01:30:19.497Z,7.84
2018-05-12T01:35:21.982Z,7.87
2018-05-12T01:40:24.482Z,7.78
2018-05-12T01:45:27.880Z,7.85
2018-05-12T01:50:30.361Z,7.77
2018-05-12T01:55:32.891Z,7.68
2018-05-12T02:00:35.417Z,7.70
2018-05-12T02:05:37.913Z,7.56
2018-05-12T02:10:40.414Z,7.58
2018-05-12T02:15:42.909Z,7.52
2018-05-12T02:20:45.393Z,7.41
2018-05-12T02:25:47.889Z,7.47
2018-05-12T02:30:50.367Z,7.49
2018-05-12T02:35:52.876Z,7.48
2018-05-12T02:40:55.378Z,7.43
2018-05-12T02:45:57.905Z,7.33
2018-05-12T02:51:01.386Z,7.40
2018-05-12T02:56:03.931Z,7.37
2018-05-12T03:01:06.438Z,7.30
2018-05-12T03:06:08.960Z,7.28
2018-05-12T03:11:11.646Z,7.29
2018-05-12T03:16:14.127Z,7.29
2018-05-12T03:21:16.617Z,7.40
2018-05-12T03:26:19.112Z,7.41
2018-05-12T03:31:21.593Z,7.54
2018-05-12T03:36:24.111Z,7.63
2018-05-12T03:41:26.603Z,7.74
2018-05-12T03:46:29.076Z,7.84
2018-05-12T03:51:31.774Z,8.02
2018-05-12T03:56:34.561Z,8.24
2018-05-12T04:01:37.099Z,8.63
2018-05-12T04:06:51.509Z,9.01
2018-05-12T04:12:05.919Z,9.32
2018-05-12T04:17:08.430Z,9.67
2018-05-12T04:22:10.950Z,10.20
2018-05-12T04:27:13.445Z,10.69
2018-05-12T04:32:15.939Z,12.83
2018-05-12T04:37:18.461Z,16.19
2018-05-12T04:42:22.287Z,17.94
2018-05-12T04:47:24.771Z,19.74
2018-05-12T04:52:27.362Z,21.52
2018-05-12T04:57:29.895Z,22.61
2018-05-12T05:02:32.435Z,23.33
2018-05-12T05:07:35.050Z,23.75
2018-05-12T05:12:37.665Z,24.46
2018-05-12T05:17:40.317Z,25.47
2018-05-12T05:22:42.823Z,25.52
2018-05-12T05:27:45.341Z,25.90
2018-05-12T05:32:47.850Z,25.64
2018-05-12T05:37:50.320Z,25.54
2018-05-12T05:42:52.818Z,23.37
2018-05-12T05:47:55.331Z,21.28
2018-05-12T05:52:57.830Z,19.71
2018-05-12T05:58:00.334Z,18.65
2018-05-12T06:03:03.000Z,17.61
2018-05-12T06:08:06.430Z,17.67
2018-05-12T06:13:08.963Z,17.72
2018-05-12T06:18:11.560Z,17.91
2018-05-12T06:23:13.959Z,17.69
2018-05-12T06:28:16.450Z,17.80
2018-05-12T06:33:18.971Z,18.17
2018-05-12T06:38:21.460Z,18.01
2018-05-12T06:43:23.993Z,18.35
2018-05-12T06:48:26.499Z,18.44
2018-05-12T06:53:28.993Z,18.88
2018-05-12T06:58:32.219Z,20.00
2018-05-12T07:03:34.733Z,20.10
2018-05-12T07:08:37.291Z,21.66
2018-05-12T07:13:39.784Z,21.50
2018-05-12T07:18:42.296Z,22.18
2018-05-12T07:23:44.792Z,24.77
2018-05-12T07:28:47.280Z,26.32
2018-05-12T07:33:49.791Z,25.25
2018-05-12T07:38:52.362Z,23.04
2018-05-12T07:43:54.864Z,24.82
2018-05-12T07:48:57.376Z,27.48
2018-05-12T07:53:59.875Z,30.04
2018-05-12T07:59:02.488Z,26.80
2018-05-12T08:04:05.000Z,24.18
2018-05-12T08:09:07.537Z,22.62
2018-05-12T08:14:10.065Z,21.98
2018-05-12T08:19:12.591Z,23.42
2018-05-12T08:24:15.122Z,23.58
2018-05-12T08:29:17.613Z,25.98
2018-05-12T08:34:20.131Z,26.02
2018-05-12T08:39:22.720Z,23.95
2018-05-12T08:44:25.442Z,26.06
2018-05-12T08:49:27.933Z,27.39
2018-05-12T08:54:30.437Z,26.39
2018-05-12T08:59:33.008Z,24.93
2018-05-12T09:04:35.531Z,24.44
2018-05-12T09:09:38.161Z,25.34
2018-05-12T09:14:40.747Z,23.60
2018-05-12T09:19:43.277Z,22.46
2018-05-12T09:24:45.812Z,21.99
2018-05-12T09:29:48.283Z,21.16
2018-05-12T09:34:50.836Z,22.04
2018-05-12T09:39:53.313Z,22.60
2018-05-12T09:44:55.932Z,23.74
2018-05-12T09:49:58.350Z,26.20
2018-05-12T09:55:04.424Z,24.93
2018-05-12T10:00:07.313Z,24.53
2018-05-12T10:05:09.827Z,26.38
2018-05-12T10:10:12.361Z,27.45
2018-05-12T10:15:14.872Z,27.37
2018-05-12T10:25:37.421Z,25.96
2018-05-12T10:30:40.049Z,24.90
2018-05-12T10:35:42.572Z,24.15
2018-05-12T10:40:45.121Z,23.40
2018-05-12T10:45:47.626Z,22.85
2018-05-12T10:50:50.154Z,23.01
2018-05-12T10:55:53.488Z,23.54
2018-05-12T11:00:57.051Z,25.48
2018-05-12T11:06:00.659Z,24.88
2018-05-12T11:11:03.994Z,24.04
2018-05-12T11:16:07.755Z,24.86
2018-05-12T11:21:11.385Z,24.40
2018-05-12T11:26:14.897Z,24.40
2018-05-12T11:31:18.439Z,25.35
2018-05-12T11:36:21.948Z,25.25
2018-05-12T11:41:25.449Z,25.93
2018-05-12T11:46:29.044Z,26.87
2018-05-12T11:51:32.578Z,25.28
2018-05-12T11:56:36.110Z,25.13
2018-05-12T12:01:39.900Z,24.71
2018-05-12T12:06:43.437Z,26.03
2018-05-12T12:11:46.953Z,24.33
2018-05-12T12:16:50.492Z,23.96
2018-05-12T12:21:54.014Z,24.69
2018-05-12T12:26:57.526Z,25.25
2018-05-12T12:32:01.151Z,25.78
2018-05-12T12:37:05.101Z,25.10
2018-05-12T12:42:08.671Z,24.62
2018-05-12T12:47:12.324Z,25.63
2018-05-12T12:52:15.848Z,25.87
2018-05-12T12:57:19.390Z,25.53
2018-05-12T13:02:22.891Z,24.91
2018-05-12T13:07:26.415Z,25.66
2018-05-12T13:12:29.941Z,25.24
2018-05-12T13:17:33.486Z,24.94
2018-05-12T13:22:37.068Z,25.42
2018-05-12T13:27:40.955Z,25.43
2018-05-12T13:32:44.703Z,25.52
2018-05-12T13:37:48.279Z,26.00
2018-05-12T13:42:51.789Z,26.24
2018-05-12T13:47:55.313Z,26.36
2018-05-12T13:52:58.830Z,25.83
2018-05-12T13:58:02.608Z,25.25
2018-05-12T14:03:06.117Z,26.03
2018-05-12T14:08:09.685Z,26.63
2018-05-12T14:13:13.231Z,25.53
2018-05-12T14:18:16.738Z,25.80
2018-05-12T14:23:20.249Z,25.40
2018-05-12T14:28:23.441Z,25.96
2018-05-12T14:33:26.982Z,25.26
2018-05-12T14:38:30.499Z,26.19
2018-05-12T14:43:34.231Z,25.59
2018-05-12T14:48:37.758Z,26.15
2018-05-12T14:53:41.367Z,25.95
2018-05-12T14:58:44.889Z,26.30
2018-05-12T15:03:48.417Z,26.57
2018-05-12T15:08:52.224Z,26.38
2018-05-12T15:13:55.736Z,25.49
2018-05-12T15:18:59.234Z,24.89
2018-05-12T15:24:02.841Z,25.78
2018-05-12T15:29:06.359Z,26.10
2018-05-12T15:34:09.889Z,26.19
2018-05-12T15:39:13.399Z,26.61
2018-05-12T15:44:16.922Z,26.52
2018-05-12T15:49:20.942Z,26.43
2018-05-12T15:54:24.478Z,26.50
2018-05-12T15:59:28.160Z,26.04
2018-05-12T16:04:31.689Z,26.18
2018-05-12T16:09:35.268Z,25.90
2018-05-12T16:14:38.473Z,25.81
2018-05-12T16:19:41.997Z,26.27
2018-05-12T16:24:45.532Z,26.18
2018-05-12T16:29:49.033Z,26.43
2018-05-12T16:34:52.615Z,26.74
2018-05-12T16:39:56.119Z,26.54
2018-05-12T16:44:59.627Z,26.31
2018-05-12T16:50:03.175Z,26.22
2018-05-12T16:55:06.703Z,26.00
2018-05-12T17:00:11.946Z,25.58
2018-05-12T17:05:15.503Z,25.97
2018-05-12T17:10:19.025Z,25.27
2018-05-12T17:15:22.593Z,25.11
2018-05-12T17:20:26.358Z,25.20
2018-05-12T17:25:29.869Z,24.89
2018-05-12T17:30:33.432Z,24.31
2018-05-12T17:35:36.998Z,23.89
2018-05-12T17:40:40.567Z,23.88
2018-05-12T17:45:44.036Z,23.85
2018-05-12T17:50:47.571Z,23.55
2018-05-12T17:55:51.055Z,23.14
2018-05-12T18:00:54.597Z,22.85
2018-05-12T18:05:58.111Z,22.72
2018-05-12T18:11:01.661Z,22.34
2018-05-12T18:16:05.171Z,22.07
2018-05-12T18:21:08.680Z,21.83
2018-05-12T18:26:12.202Z,21.57
2018-05-12T18:31:15.719Z,21.30
2018-05-12T18:36:19.380Z,21.05
2018-05-12T18:41:23.093Z,20.83
2018-05-12T18:46:26.620Z,20.54
2018-05-12T18:51:30.126Z,20.32
2018-05-12T18:56:33.773Z,20.11
2018-05-12T19:01:37.439Z,19.93
2018-05-12T19:06:41.141Z,19.72
2018-05-12T19:11:45.384Z,19.55
2018-05-12T19:16:48.902Z,19.44
2018-05-12T19:21:52.620Z,19.26
2018-05-12T19:26:56.136Z,19.16
2018-05-12T19:32:00.366Z,19.08
2018-05-12T19:37:03.879Z,19.02
2018-05-12T19:42:07.424Z,18.79
2018-05-12T19:47:10.948Z,18.80
2018-05-12T19:52:14.699Z,18.83
2018-05-12T19:57:18.507Z,18.87
2018-05-12T20:02:22.976Z,18.81
2018-05-12T20:07:27.964Z,18.74
2018-05-12T20:12:31.802Z,18.65
2018-05-12T20:17:35.439Z,18.48
2018-05-12T20:22:39.231Z,18.39
2018-05-12T20:27:42.939Z,18.46
2018-05-12T20:32:47.568Z,18.50
2018-05-12T20:37:51.254Z,18.33
2018-05-12T20:42:55.298Z,18.13
2018-05-12T20:47:59.132Z,18.15
2018-05-12T20:53:02.764Z,18.28
2018-05-12T20:58:06.874Z,18.20
2018-05-12T21:03:10.493Z,18.16
2018-05-12T21:08:14.454Z,18.03
2018-05-12T21:13:18.589Z,18.00
2018-05-12T21:18:22.328Z,18.11
2018-05-12T21:23:27.433Z,18.14
2018-05-12T21:28:31.509Z,18.11
2018-05-12T21:33:35.620Z,18.03
2018-05-12T21:38:39.910Z,18.02
2018-05-12T21:43:44.889Z,18.06
2018-05-12T21:48:48.362Z,17.84
2018-05-12T21:53:51.963Z,17.76
2018-05-12T21:58:55.529Z,17.85
2018-05-12T22:03:59.171Z,17.80
2018-05-12T22:09:02.649Z,17.83
2018-05-12T22:14:06.186Z,17.85
2018-05-12T22:19:09.700Z,17.81
2018-05-12T22:24:12.831Z,17.84
2018-05-12T22:29:16.346Z,17.76
2018-05-12T22:34:20.013Z,17.61
2018-05-12T22:39:23.537Z,17.55
2018-05-12T22:44:27.040Z,17.52
2018-05-12T22:49:30.776Z,17.37
2018-05-12T22:54:34.316Z,17.27
2018-05-12T22:59:37.798Z,17.22
2018-05-12T23:04:41.328Z,17.14
2018-05-12T23:09:44.904Z,17.02
2018-05-12T23:14:48.526Z,16.85
2018-05-12T23:19:52.061Z,16.78
2018-05-12T23:24:55.657Z,16.75
2018-05-12T23:29:59.331Z,16.55
2018-05-12T23:35:02.884Z,16.47
2018-05-12T23:40:06.385Z,16.40
2018-05-12T23:45:09.900Z,16.22
2018-05-12T23:50:13.429Z,16.15
2018-05-12T23:55:16.982Z,16.12
